EBCI

Brussels South Charleroi Airport

Brussels, Belgium

EBCI 110850Z 06016KT 2500 RADZ BR SCT004 BKN005 02/02 Q0975 TEMPO 2500 RA BR BKN005

Observed Flight Rules
Dec-11 @ 08:50 UTC (41 minutes ago) Instrument Flight Rules
Wind Visibility Clouds Conditions
60° at 16 knots 2,494 meters
  • Scattered at 400' AGL
  • Broken at 500' AGL
  • Rain
  • Drizzle
  • Mist
Temperatures Readings
Current 2°C / 36°F
Dewpoint 2°C / 36°F
Humidity 100%
Altimeter 28.79" Hg
Pressure 975 hPa
Elevation 192
Observed Flight Rules
Dec-11 @ 08:50 UTC
(41 minutes ago)
IFR
Wind Visibility
60° at 16 knots 2,494 meters
Clouds
  • Scattered at 400' AGL
  • Broken at 500' AGL
Conditions
  • Rain
  • Drizzle
  • Mist
Temperature Dewpoint
2°C / 36°F 2°C / 36°F
Humidity Altimeter Pressure
100% 28.79" Hg 975 hPa